Alum Creek, West Virginia
Current Conditions -  °F | °C
As of 2:54 AM on Saturday 20 Dec 2014 (Local Time) from KCRW Reporting Station
Overcast Overcast  
Wind Chill: 30°   Ceiling: 2100
Heat Index: 30°   Visibility: 10mi
Dew Point: 22°   Wind: 3mph
Humidity: 72%   Direction: 60°ENE
Pressure: 30.23"   Gusts: NA
Location:  38.28°N, 81.84°W
Report Text: KCRW 200754Z 06003KT 10SM OVC021 M01/M06 A3023 RMK AO2 SLP245 T10111056
Loading
Personal Weather Stations






























Interactive Weather Map New forecast layout! Learn more

10-Day Weather Forecast

Advertisements
Track Severe Weather on mobile